createdAt,value
2018-11-20T00:02:50.761Z,2.91
2018-11-20T00:05:42.065Z,2.89
2018-11-20T00:08:46.135Z,2.88
2018-11-20T00:11:41.824Z,2.80
2018-11-20T00:14:36.040Z,2.85
2018-11-20T00:17:14.913Z,2.80
2018-11-20T00:20:09.843Z,2.83
2018-11-20T00:22:57.401Z,2.82
2018-11-20T00:25:44.184Z,2.83
2018-11-20T00:28:30.693Z,2.80
2018-11-20T00:31:20.554Z,2.85
2018-11-20T00:34:29.819Z,2.84
2018-11-20T00:37:16.962Z,2.84
2018-11-20T00:39:58.387Z,2.80
2018-11-20T00:42:46.701Z,2.79
2018-11-20T00:45:36.694Z,2.78
2018-11-20T00:48:30.580Z,2.81
2018-11-20T00:51:21.710Z,2.74
2018-11-20T00:54:17.983Z,2.78
2018-11-20T00:57:21.077Z,2.78
2018-11-20T01:00:21.659Z,2.74
2018-11-20T01:03:13.169Z,2.73
2018-11-20T01:06:21.838Z,2.78
2018-11-20T01:09:14.074Z,2.72
2018-11-20T01:12:02.930Z,2.65
2018-11-20T01:14:57.421Z,2.64
2018-11-20T01:17:47.505Z,2.67
2018-11-20T01:20:27.738Z,2.67
2018-11-20T01:23:11.958Z,2.59
2018-11-20T01:26:02.290Z,2.63
2018-11-20T01:28:49.998Z,2.58
2018-11-20T01:31:43.551Z,2.58
2018-11-20T01:34:37.490Z,2.57
2018-11-20T01:37:34.396Z,2.55
2018-11-20T01:40:24.075Z,2.56
2018-11-20T01:43:18.285Z,2.61
2018-11-20T01:46:09.516Z,2.54
2018-11-20T01:49:00.835Z,2.60
2018-11-20T01:51:58.565Z,2.58
2018-11-20T01:54:50.570Z,2.62
2018-11-20T01:57:47.577Z,2.58
2018-11-20T02:00:38.793Z,2.55
2018-11-20T02:03:29.024Z,2.51
2018-11-20T02:06:20.263Z,2.50
2018-11-20T02:09:06.223Z,2.48
2018-11-20T02:11:58.074Z,2.51
2018-11-20T02:15:07.426Z,2.57
2018-11-20T02:18:07.741Z,2.52
2018-11-20T02:20:55.032Z,2.49
2018-11-20T02:23:48.610Z,2.41
2018-11-20T02:26:39.855Z,2.48
2018-11-20T02:29:36.935Z,2.40
2018-11-20T02:32:19.741Z,2.44
2018-11-20T02:35:10.917Z,2.52
2018-11-20T02:37:56.621Z,2.52
2018-11-20T02:40:44.929Z,2.47
2018-11-20T02:43:42.151Z,2.43
2018-11-20T02:46:39.702Z,2.38
2018-11-20T02:49:26.942Z,2.37
2018-11-20T02:52:20.069Z,2.36
2018-11-20T02:55:00.202Z,2.42
2018-11-20T02:57:47.307Z,2.33
2018-11-20T03:00:36.713Z,2.38
2018-11-20T03:03:28.280Z,2.35
2018-11-20T03:06:18.478Z,2.37
2018-11-20T03:09:08.394Z,2.34
2018-11-20T03:12:05.532Z,2.36
2018-11-20T03:14:55.283Z,2.26
2018-11-20T03:17:47.477Z,2.34
2018-11-20T03:20:34.328Z,2.37
2018-11-20T03:23:37.994Z,2.37
2018-11-20T03:26:25.581Z,2.28
2018-11-20T03:29:20.127Z,2.26
2018-11-20T03:32:01.560Z,2.25
2018-11-20T03:34:51.449Z,2.28
2018-11-20T03:37:41.087Z,2.27
2018-11-20T03:40:31.136Z,2.36
2018-11-20T03:43:13.306Z,2.34
2018-11-20T03:45:59.210Z,2.29
2018-11-20T03:49:02.696Z,2.23
2018-11-20T03:51:46.332Z,2.24
2018-11-20T03:54:48.469Z,2.34
2018-11-20T03:57:41.484Z,2.28
2018-11-20T04:00:28.556Z,2.26
2018-11-20T04:03:13.116Z,2.26
2018-11-20T04:06:00.802Z,2.30
2018-11-20T04:08:50.719Z,2.25
2018-11-20T04:11:36.274Z,2.31
2018-11-20T04:14:26.093Z,2.27
2018-11-20T04:17:22.936Z,2.28
2018-11-20T04:20:29.088Z,2.29
2018-11-20T04:23:18.642Z,2.34
2018-11-20T04:26:08.377Z,2.30
2018-11-20T04:28:59.282Z,2.34
2018-11-20T04:32:01.342Z,2.31
2018-11-20T04:34:49.711Z,2.30
2018-11-20T04:37:45.863Z,2.28
2018-11-20T04:40:30.116Z,2.27
2018-11-20T04:43:14.061Z,2.24
2018-11-20T04:46:01.878Z,2.33
2018-11-20T04:49:01.921Z,2.27
2018-11-20T04:52:08.296Z,2.30
2018-11-20T04:54:52.762Z,2.26
2018-11-20T04:57:58.710Z,2.26
2018-11-20T05:00:49.891Z,2.28
2018-11-20T05:03:29.642Z,2.28
2018-11-20T05:06:18.012Z,2.26
2018-11-20T05:09:00.606Z,2.26
2018-11-20T05:11:49.583Z,2.29
2018-11-20T05:14:37.051Z,2.25
2018-11-20T05:17:28.656Z,2.25
2018-11-20T05:20:17.526Z,2.21
2018-11-20T05:23:08.619Z,2.25
2018-11-20T05:25:59.820Z,2.24
2018-11-20T05:28:50.998Z,2.29
2018-11-20T05:31:33.414Z,2.29
2018-11-20T05:34:30.776Z,2.24
2018-11-20T05:37:24.506Z,2.31
2018-11-20T05:40:28.305Z,2.23
2018-11-20T05:43:32.094Z,2.19
2018-11-20T05:46:21.747Z,2.22
2018-11-20T05:49:07.863Z,2.30
2018-11-20T05:51:57.755Z,2.36
2018-11-20T05:55:04.213Z,2.40
2018-11-20T05:57:52.582Z,2.36
2018-11-20T06:00:51.825Z,2.34
2018-11-20T06:03:41.561Z,2.29
2018-11-20T06:06:42.220Z,2.24
2018-11-20T06:09:33.791Z,2.26
2018-11-20T06:12:20.676Z,2.31
2018-11-20T06:15:17.706Z,2.28
2018-11-20T06:18:20.761Z,2.33
2018-11-20T06:21:16.507Z,2.32
2018-11-20T06:23:52.656Z,2.27
2018-11-20T06:26:59.301Z,2.29
2018-11-20T06:29:47.803Z,2.30
2018-11-20T06:32:52.255Z,2.30
2018-11-20T06:35:42.027Z,2.32
2018-11-20T06:38:28.975Z,2.26
2018-11-20T06:41:28.889Z,2.24
2018-11-20T06:44:19.935Z,2.33
2018-11-20T06:47:09.292Z,2.25
2018-11-20T06:50:09.599Z,2.23
2018-11-20T06:52:57.359Z,2.33
2018-11-20T06:56:03.683Z,2.31
2018-11-20T06:58:51.377Z,2.31
2018-11-20T07:01:36.021Z,2.20
2018-11-20T07:04:23.233Z,2.30
2018-11-20T07:07:14.636Z,2.28
2018-11-20T07:10:05.824Z,2.29
2018-11-20T07:12:56.269Z,2.33
2018-11-20T07:15:50.093Z,2.25
2018-11-20T07:18:44.502Z,2.26
2018-11-20T07:21:41.436Z,2.34
2018-11-20T07:24:47.989Z,2.26
2018-11-20T07:27:54.316Z,2.36
2018-11-20T07:30:41.413Z,2.26
2018-11-20T07:33:41.443Z,2.34
2018-11-20T07:36:41.799Z,2.27
2018-11-20T07:39:29.209Z,2.31
2018-11-20T07:42:16.453Z,2.34
2018-11-20T07:45:07.391Z,2.39
2018-11-20T07:47:54.862Z,2.27
2018-11-20T07:50:37.840Z,2.39
2018-11-20T07:53:28.879Z,2.40
2018-11-20T07:56:18.361Z,2.42
2018-11-20T07:59:04.099Z,2.39
2018-11-20T08:01:55.240Z,2.43
2018-11-20T08:04:42.161Z,2.51
2018-11-20T08:07:29.338Z,2.30
2018-11-20T08:10:32.592Z,2.41
2018-11-20T08:13:26.803Z,2.44
2018-11-20T08:16:16.507Z,2.50
2018-11-20T08:19:04.240Z,2.49
2018-11-20T08:21:55.492Z,2.40
2018-11-20T08:24:50.533Z,2.49
2018-11-20T08:27:37.522Z,2.47
2018-11-20T08:30:37.798Z,2.51
2018-11-20T08:33:26.118Z,2.50
2018-11-20T08:36:17.409Z,2.43
2018-11-20T08:39:08.601Z,2.49
2018-11-20T08:41:52.110Z,2.56
2018-11-20T08:44:52.713Z,2.46
2018-11-20T08:47:50.244Z,2.43
2018-11-20T08:50:44.133Z,2.46
2018-11-20T08:53:42.271Z,2.48
2018-11-20T08:56:35.030Z,2.46
2018-11-20T08:59:22.683Z,2.48
2018-11-20T09:02:17.334Z,2.46
2018-11-20T09:05:20.716Z,2.51
2018-11-20T09:08:07.751Z,2.51
2018-11-20T09:10:54.461Z,2.53
2018-11-20T09:13:41.415Z,2.54
2018-11-20T09:16:32.638Z,2.59
2018-11-20T09:19:19.384Z,2.58
2018-11-20T09:22:25.734Z,2.64
2018-11-20T09:25:20.025Z,2.65
2018-11-20T09:28:07.172Z,2.62
2018-11-20T09:31:19.594Z,2.63
2018-11-20T09:34:16.460Z,2.61
2018-11-20T09:37:17.895Z,2.58
2018-11-20T09:40:52.242Z,2.58
2018-11-20T09:43:48.692Z,2.56
2018-11-20T09:46:43.212Z,2.52
2018-11-20T09:49:35.248Z,2.59
2018-11-20T09:52:29.789Z,2.63
2018-11-20T09:55:24.433Z,2.64
2018-11-20T09:58:28.206Z,2.60
2018-11-20T10:01:31.794Z,2.56
2018-11-20T10:04:34.744Z,2.54
2018-11-20T10:07:28.565Z,2.59
2018-11-20T10:10:26.902Z,2.53
2018-11-20T10:13:17.860Z,2.57
2018-11-20T10:16:04.840Z,2.57
2018-11-20T10:18:53.200Z,2.65
2018-11-20T10:21:51.590Z,2.70
2018-11-20T10:24:41.653Z,2.63
2018-11-20T10:27:23.569Z,2.65
2018-11-20T10:30:06.303Z,2.65
2018-11-20T10:32:56.775Z,2.74
2018-11-20T10:35:39.414Z,2.70
2018-11-20T10:38:26.744Z,2.73
2018-11-20T10:41:18.118Z,2.77
2018-11-20T10:44:12.452Z,2.77
2018-11-20T10:47:06.805Z,2.73
2018-11-20T10:50:13.238Z,2.82
2018-11-20T10:52:58.195Z,2.73
2018-11-20T10:55:47.980Z,2.71
2018-11-20T10:58:47.530Z,2.73
2018-11-20T11:01:44.426Z,2.65
2018-11-20T11:04:31.528Z,2.71
2018-11-20T11:07:29.321Z,2.69
2018-11-20T11:10:26.327Z,2.64
2018-11-20T11:13:57.244Z,2.82
2018-11-20T11:16:51.107Z,2.74
2018-11-20T11:19:37.307Z,2.60
2018-11-20T11:22:27.660Z,2.57
2018-11-20T11:25:16.732Z,2.64
2018-11-20T11:28:19.231Z,2.58
2018-11-20T11:31:08.016Z,2.61
2018-11-20T11:33:49.579Z,2.49
2018-11-20T11:36:43.064Z,2.63
2018-11-20T11:39:36.419Z,2.61
2018-11-20T11:42:45.083Z,2.62
2018-11-20T11:45:31.070Z,2.59
2018-11-20T11:48:30.718Z,2.41
2018-11-20T11:51:25.553Z,2.38
2018-11-20T11:54:21.549Z,2.35
2018-11-20T11:57:26.890Z,2.42
2018-11-20T12:00:20.470Z,2.40
2018-11-20T12:05:51.799Z,2.47
2018-11-20T12:08:37.601Z,2.56
2018-11-20T12:11:24.123Z,2.52
2018-11-20T12:14:07.662Z,2.45
2018-11-20T12:16:54.595Z,2.50
2018-11-20T12:19:43.780Z,2.50
2018-11-20T12:22:40.755Z,2.48
2018-11-20T12:25:43.133Z,2.48
2018-11-20T12:28:38.844Z,2.48
2018-11-20T12:31:24.913Z,2.48
2018-11-20T12:34:12.434Z,2.48
2018-11-20T12:37:11.814Z,2.37
2018-11-20T12:39:51.550Z,2.44
2018-11-20T12:42:38.645Z,2.49
2018-11-20T12:45:24.493Z,2.46
2018-11-20T12:48:23.845Z,2.37
2018-11-20T12:51:27.363Z,2.34
2018-11-20T12:54:16.811Z,2.40
2018-11-20T12:57:22.472Z,2.41
2018-11-20T13:00:21.703Z,2.40
2018-11-20T13:03:08.098Z,2.37
2018-11-20T13:05:58.259Z,2.37
2018-11-20T13:08:48.774Z,2.40
2018-11-20T13:11:46.919Z,2.37
2018-11-20T13:14:49.599Z,2.30
2018-11-20T13:17:28.027Z,2.25
2018-11-20T13:20:14.292Z,2.36
2018-11-20T13:23:11.975Z,2.29
2018-11-20T13:26:05.415Z,2.27
2018-11-20T13:28:55.828Z,2.27
2018-11-20T13:31:41.901Z,2.23
2018-11-20T13:34:50.305Z,2.25
2018-11-20T13:37:41.130Z,2.27
2018-11-20T13:41:28.544Z,2.38
2018-11-20T13:44:34.200Z,2.33
2018-11-20T13:47:33.907Z,2.28
2018-11-20T13:50:24.636Z,2.21
2018-11-20T13:53:24.791Z,2.23
2018-11-20T13:56:27.366Z,2.06
2018-11-20T13:59:13.921Z,2.12
2018-11-20T14:02:04.337Z,2.13
2018-11-20T14:04:53.841Z,2.16
2018-11-20T14:07:44.167Z,2.17
2018-11-20T14:10:32.247Z,2.12
2018-11-20T14:13:35.073Z,2.13
2018-11-20T14:16:28.647Z,2.12
2018-11-20T14:19:24.293Z,2.12
2018-11-20T14:22:22.112Z,2.13
2018-11-20T14:25:11.546Z,2.20
2018-11-20T14:27:49.187Z,2.12
2018-11-20T14:30:37.336Z,2.09
2018-11-20T14:33:36.807Z,2.08
2018-11-20T14:36:22.896Z,1.96
2018-11-20T14:39:11.867Z,2.00
2018-11-20T14:41:59.479Z,2.00
2018-11-20T14:44:46.296Z,1.96
2018-11-20T14:47:48.784Z,1.95
2018-11-20T14:50:37.819Z,1.95
2018-11-20T14:53:28.388Z,1.91
2018-11-20T14:56:11.232Z,1.94
2018-11-20T14:59:11.111Z,1.97
2018-11-20T15:02:01.316Z,1.90
2018-11-20T15:04:47.748Z,1.92
2018-11-20T15:07:32.769Z,1.90
2018-11-20T15:10:20.491Z,1.86
2018-11-20T15:13:09.383Z,1.94
2018-11-20T15:16:05.943Z,1.95
2018-11-20T15:18:53.451Z,1.91
2018-11-20T15:21:32.807Z,1.87
2018-11-20T15:24:32.816Z,1.87
2018-11-20T15:27:18.990Z,1.88
2018-11-20T15:30:08.981Z,1.84
2018-11-20T15:32:55.230Z,1.90
2018-11-20T15:35:41.637Z,1.93
2018-11-20T15:38:20.808Z,1.92
2018-11-20T15:41:08.971Z,1.94
2018-11-20T15:43:55.460Z,1.94
2018-11-20T15:46:41.604Z,1.90
2018-11-20T15:49:38.099Z,1.98
2018-11-20T15:52:28.850Z,1.91
2018-11-20T15:55:14.956Z,1.93
2018-11-20T15:58:11.887Z,1.90
2018-11-20T16:01:18.370Z,1.88
2018-11-20T16:04:19.908Z,1.90
2018-11-20T16:07:02.058Z,1.88
2018-11-20T16:09:51.293Z,1.90
2018-11-20T16:12:57.289Z,1.86
2018-11-20T16:15:59.742Z,1.94
2018-11-20T16:18:53.080Z,1.85
2018-11-20T16:21:46.431Z,1.89
2018-11-20T16:24:55.160Z,1.88
2018-11-20T16:27:46.467Z,1.86
2018-11-20T16:30:32.471Z,1.86
2018-11-20T16:33:19.069Z,1.91
2018-11-20T16:36:22.870Z,1.90
2018-11-20T16:39:08.916Z,1.91
2018-11-20T16:41:59.427Z,1.93
2018-11-20T16:44:41.854Z,1.96
2018-11-20T16:47:28.169Z,1.98
2018-11-20T16:50:21.251Z,1.98
2018-11-20T16:53:09.578Z,1.99
2018-11-20T16:56:04.265Z,1.91
2018-11-20T16:59:06.905Z,1.95
2018-11-20T17:01:57.534Z,1.92
2018-11-20T17:04:57.057Z,1.94
2018-11-20T17:07:47.226Z,1.96
2018-11-20T17:10:46.845Z,1.99
2018-11-20T17:13:33.246Z,1.97
2018-11-20T17:16:26.611Z,1.96
2018-11-20T17:19:35.622Z,1.92
2018-11-20T17:22:22.072Z,1.95
2018-11-20T17:25:08.155Z,1.90
2018-11-20T17:28:07.261Z,1.89
2018-11-20T17:30:54.812Z,1.91
2018-11-20T17:33:44.240Z,1.93
2018-11-20T17:36:33.593Z,1.97
2018-11-20T17:39:32.879Z,1.98
2018-11-20T17:42:20.410Z,1.99
2018-11-20T17:45:17.000Z,1.97
2018-11-20T17:48:11.103Z,1.94
2018-11-20T17:50:59.047Z,1.95
2018-11-20T17:53:38.778Z,1.93
2018-11-20T17:56:32.210Z,1.99
2018-11-20T17:59:22.461Z,2.00
2018-11-20T18:02:12.766Z,2.01
2018-11-20T18:04:50.143Z,1.94
2018-11-20T18:07:36.830Z,1.95
2018-11-20T18:10:26.672Z,1.98
2018-11-20T18:13:15.945Z,1.88
2018-11-20T18:16:02.164Z,1.86
2018-11-20T18:18:55.584Z,1.92
2018-11-20T18:21:49.036Z,1.92
2018-11-20T18:24:39.581Z,1.91
2018-11-20T18:27:30.069Z,1.85
2018-11-20T18:30:10.753Z,1.83
2018-11-20T18:32:58.858Z,1.85
2018-11-20T18:36:01.827Z,1.91
2018-11-20T18:39:02.021Z,1.89
2018-11-20T18:41:42.704Z,1.90
2018-11-20T18:44:38.910Z,1.86
2018-11-20T18:47:25.537Z,1.97
2018-11-20T18:50:12.404Z,1.88
2018-11-20T18:53:08.547Z,1.91
2018-11-20T18:55:56.057Z,1.90
2018-11-20T18:58:41.125Z,1.87
2018-11-20T19:01:22.094Z,1.98
2018-11-20T19:04:08.107Z,1.99
2018-11-20T19:07:04.618Z,1.97
2018-11-20T19:10:01.427Z,1.94
2018-11-20T19:12:47.746Z,1.93
2018-11-20T19:15:33.953Z,1.93
2018-11-20T19:18:18.247Z,1.93
2018-11-20T19:20:58.999Z,1.94
2018-11-20T19:23:47.926Z,1.97
2018-11-20T19:26:34.363Z,1.92
2018-11-20T19:29:20.386Z,1.99
2018-11-20T19:32:06.922Z,1.95
2018-11-20T19:35:00.364Z,1.91
2018-11-20T19:38:06.381Z,1.98
2018-11-20T19:40:53.483Z,1.99
2018-11-20T19:43:39.728Z,1.97
2018-11-20T19:46:27.255Z,1.93
2018-11-20T19:49:20.966Z,1.93
2018-11-20T19:52:17.225Z,1.91
2018-11-20T19:54:58.862Z,1.91
2018-11-20T19:57:52.558Z,2.00
2018-11-20T20:00:51.959Z,1.90
2018-11-20T20:03:32.405Z,1.88
2018-11-20T20:06:18.594Z,1.94
2018-11-20T20:09:24.300Z,1.90
2018-11-20T20:12:16.584Z,1.90
2018-11-20T20:15:02.310Z,1.93
2018-11-20T20:18:04.940Z,2.00
2018-11-20T20:21:00.872Z,1.94
2018-11-20T20:24:03.434Z,1.90
2018-11-20T20:27:03.252Z,1.92
2018-11-20T20:29:49.764Z,1.93
2018-11-20T20:32:40.216Z,2.00
2018-11-20T20:35:26.688Z,1.88
2018-11-20T20:38:34.971Z,1.89
2018-11-20T20:41:29.010Z,1.88
2018-11-20T20:44:29.015Z,2.02
2018-11-20T20:47:22.427Z,2.03
2018-11-20T20:50:20.582Z,1.97
2018-11-20T20:53:09.884Z,2.00
2018-11-20T20:56:00.295Z,2.03
2018-11-20T20:58:49.331Z,1.96
2018-11-20T21:01:35.807Z,2.02
2018-11-20T21:04:12.980Z,1.97
2018-11-20T21:07:01.937Z,1.98
2018-11-20T21:09:52.251Z,1.97
2018-11-20T21:12:48.758Z,1.93
2018-11-20T21:15:39.913Z,1.94
2018-11-20T21:18:26.327Z,1.92
2018-11-20T21:21:16.812Z,1.99
2018-11-20T21:24:03.878Z,2.01
2018-11-20T21:27:08.567Z,1.98
2018-11-20T21:33:53.256Z,1.96
2018-11-20T21:37:08.673Z,1.96
2018-11-20T21:39:57.736Z,2.06
2018-11-20T21:43:05.155Z,2.09
2018-11-20T21:45:51.225Z,2.06
2018-11-20T21:48:57.110Z,1.99
2018-11-20T21:51:41.624Z,1.94
2018-11-20T21:54:31.937Z,1.98
2018-11-20T21:57:27.338Z,1.89
2018-11-20T22:00:11.407Z,2.01
2018-11-20T22:03:05.591Z,2.00
2018-11-20T22:05:53.157Z,2.09
2018-11-20T22:08:39.553Z,2.01
2018-11-20T22:11:55.251Z,2.11
2018-11-20T22:14:26.092Z,2.06
2018-11-20T22:20:20.675Z,2.07
2018-11-20T22:23:59.882Z,2.09
2018-11-20T22:26:49.944Z,1.98
2018-11-20T22:29:37.434Z,2.05
2018-11-20T22:32:27.887Z,2.11
2018-11-20T22:35:17.406Z,2.08
2018-11-20T22:38:08.272Z,2.08
2018-11-20T22:40:56.041Z,2.19
2018-11-20T22:43:36.676Z,2.03
2018-11-20T22:46:17.489Z,2.15
2018-11-20T22:49:06.940Z,2.09
2018-11-20T22:52:09.619Z,2.00
2018-11-20T22:54:55.995Z,2.05
2018-11-20T22:57:46.193Z,2.16
2018-11-20T23:00:32.268Z,2.18
2018-11-20T23:03:22.618Z,2.16
2018-11-20T23:06:10.592Z,2.04
2018-11-20T23:08:39.131Z,1.96
2018-11-20T23:11:07.585Z,2.00
2018-11-20T23:13:35.987Z,1.97
2018-11-20T23:16:04.965Z,1.97
2018-11-20T23:18:36.496Z,1.94
2018-11-20T23:21:04.985Z,1.99
2018-11-20T23:23:36.341Z,1.97
2018-11-20T23:26:11.049Z,2.07
2018-11-20T23:28:48.648Z,2.00
2018-11-20T23:31:24.236Z,2.06
2018-11-20T23:33:58.951Z,1.97
2018-11-20T23:36:32.583Z,1.98
2018-11-20T23:39:03.197Z,2.07
2018-11-20T23:41:31.926Z,2.10
2018-11-20T23:44:04.131Z,2.08
2018-11-20T23:46:32.572Z,2.12
2018-11-20T23:49:01.362Z,2.09
2018-11-20T23:51:33.083Z,1.96
2018-11-20T23:54:04.368Z,1.95
2018-11-20T23:56:32.903Z,1.99
2018-11-20T23:59:05.421Z,2.02
